sensor_id;sensor_type;location;lat;lon;timestamp;P1;durP1;ratioP1;P2;durP2;ratioP2
77085;SDS011;66014;53.134;18.006;2023-01-04T00:01:45;17.90;;;6.40;;
77085;SDS011;66014;53.134;18.006;2023-01-04T00:04:12;13.70;;;6.10;;
77085;SDS011;66014;53.134;18.006;2023-01-04T00:06:38;15.00;;;6.00;;
77085;SDS011;66014;53.134;18.006;2023-01-04T00:09:04;12.60;;;5.70;;
77085;SDS011;66014;53.134;18.006;2023-01-04T00:11:31;19.20;;;7.90;;
77085;SDS011;66014;53.134;18.006;2023-01-04T00:13:58;12.10;;;5.80;;
77085;SDS011;66014;53.134;18.006;2023-01-04T00:16:25;15.50;;;6.90;;
77085;SDS011;66014;53.134;18.006;2023-01-04T00:18:53;15.70;;;6.90;;
77085;SDS011;66014;53.134;18.006;2023-01-04T00:21:22;16.10;;;7.00;;
77085;SDS011;66014;53.134;18.006;2023-01-04T00:23:51;16.60;;;5.80;;
77085;SDS011;66014;53.134;18.006;2023-01-04T00:26:20;14.40;;;6.50;;
77085;SDS011;66014;53.134;18.006;2023-01-04T00:28:55;13.70;;;6.00;;
77085;SDS011;66014;53.134;18.006;2023-01-04T00:31:24;21.80;;;8.90;;
77085;SDS011;66014;53.134;18.006;2023-01-04T00:33:54;22.10;;;10.70;;
77085;SDS011;66014;53.134;18.006;2023-01-04T00:36:22;20.60;;;8.90;;
77085;SDS011;66014;53.134;18.006;2023-01-04T00:38:49;15.60;;;7.10;;
77085;SDS011;66014;53.134;18.006;2023-01-04T00:44:03;13.00;;;5.90;;
77085;SDS011;66014;53.134;18.006;2023-01-04T00:46:31;16.10;;;6.60;;
77085;SDS011;66014;53.134;18.006;2023-01-04T00:48:58;20.30;;;8.20;;
77085;SDS011;66014;53.134;18.006;2023-01-04T00:51:26;21.40;;;8.00;;
77085;SDS011;66014;53.134;18.006;2023-01-04T00:53:56;25.20;;;9.80;;
77085;SDS011;66014;53.134;18.006;2023-01-04T00:56:25;23.00;;;9.60;;
77085;SDS011;66014;53.134;18.006;2023-01-04T00:58:57;19.50;;;9.00;;
77085;SDS011;66014;53.134;18.006;2023-01-04T01:01:25;19.20;;;8.80;;
77085;SDS011;66014;53.134;18.006;2023-01-04T01:03:54;14.90;;;6.70;;
77085;SDS011;66014;53.134;18.006;2023-01-04T01:06:23;18.50;;;7.40;;
77085;SDS011;66014;53.134;18.006;2023-01-04T01:08:51;16.40;;;6.40;;
77085;SDS011;66014;53.134;18.006;2023-01-04T01:11:18;9.40;;;4.70;;
77085;SDS011;66014;53.134;18.006;2023-01-04T01:13:46;18.50;;;7.90;;
77085;SDS011;66014;53.134;18.006;2023-01-04T01:16:15;18.60;;;8.80;;
77085;SDS011;66014;53.134;18.006;2023-01-04T01:18:43;18.20;;;8.00;;
77085;SDS011;66014;53.134;18.006;2023-01-04T01:21:12;19.90;;;8.10;;
77085;SDS011;66014;53.134;18.006;2023-01-04T01:23:44;16.20;;;6.10;;
77085;SDS011;66014;53.134;18.006;2023-01-04T01:26:13;20.00;;;8.40;;
77085;SDS011;66014;53.134;18.006;2023-01-04T01:28:45;13.00;;;5.30;;
77085;SDS011;66014;53.134;18.006;2023-01-04T01:31:16;17.20;;;8.30;;
77085;SDS011;66014;53.134;18.006;2023-01-04T01:33:51;19.20;;;8.00;;
77085;SDS011;66014;53.134;18.006;2023-01-04T01:36:21;16.70;;;7.10;;
77085;SDS011;66014;53.134;18.006;2023-01-04T01:38:48;17.60;;;9.00;;
77085;SDS011;66014;53.134;18.006;2023-01-04T01:46:16;19.60;;;9.00;;
77085;SDS011;66014;53.134;18.006;2023-01-04T01:48:48;15.00;;;7.50;;
77085;SDS011;66014;53.134;18.006;2023-01-04T01:51:17;12.80;;;6.40;;
77085;SDS011;66014;53.134;18.006;2023-01-04T01:53:45;9.40;;;4.50;;
77085;SDS011;66014;53.134;18.006;2023-01-04T01:56:15;22.90;;;10.60;;
77085;SDS011;66014;53.134;18.006;2023-01-04T01:58:45;20.50;;;10.80;;
77085;SDS011;66014;53.134;18.006;2023-01-04T02:01:15;19.60;;;9.90;;
77085;SDS011;66014;53.134;18.006;2023-01-04T02:03:43;22.40;;;9.00;;
77085;SDS011;66014;53.134;18.006;2023-01-04T02:06:11;17.50;;;8.20;;
77085;SDS011;66014;53.134;18.006;2023-01-04T02:08:43;20.20;;;9.80;;
77085;SDS011;66014;53.134;18.006;2023-01-04T02:11:11;20.20;;;8.50;;
77085;SDS011;66014;53.134;18.006;2023-01-04T02:13:37;20.20;;;8.00;;
77085;SDS011;66014;53.134;18.006;2023-01-04T02:16:38;15.10;;;8.20;;
77085;SDS011;66014;53.134;18.006;2023-01-04T02:22:17;17.90;;;8.70;;
77085;SDS011;66014;53.134;18.006;2023-01-04T02:28:04;18.00;;;8.00;;
77085;SDS011;66014;53.134;18.006;2023-01-04T02:33:40;17.10;;;6.50;;
77085;SDS011;66014;53.134;18.006;2023-01-04T02:36:16;23.00;;;9.00;;
77085;SDS011;66014;53.134;18.006;2023-01-04T02:41:36;21.30;;;8.30;;
77085;SDS011;66014;53.134;18.006;2023-01-04T02:44:44;14.50;;;7.30;;
77085;SDS011;66014;53.134;18.006;2023-01-04T02:47:22;14.30;;;6.50;;
77085;SDS011;66014;53.134;18.006;2023-01-04T02:50:21;10.70;;;5.00;;
77085;SDS011;66014;53.134;18.006;2023-01-04T02:55:47;13.20;;;7.80;;
77085;SDS011;66014;53.134;18.006;2023-01-04T03:04:21;15.90;;;7.60;;
77085;SDS011;66014;53.134;18.006;2023-01-04T03:07:38;15.90;;;7.10;;
77085;SDS011;66014;53.134;18.006;2023-01-04T03:10:13;21.90;;;7.90;;
77085;SDS011;66014;53.134;18.006;2023-01-04T03:12:52;16.20;;;7.50;;
77085;SDS011;66014;53.134;18.006;2023-01-04T03:15:24;16.20;;;7.00;;
77085;SDS011;66014;53.134;18.006;2023-01-04T03:18:12;19.20;;;7.80;;
77085;SDS011;66014;53.134;18.006;2023-01-04T03:20:44;18.30;;;8.20;;
77085;SDS011;66014;53.134;18.006;2023-01-04T03:23:14;15.80;;;8.20;;
77085;SDS011;66014;53.134;18.006;2023-01-04T03:26:07;15.30;;;7.30;;
77085;SDS011;66014;53.134;18.006;2023-01-04T03:28:56;15.30;;;7.60;;
77085;SDS011;66014;53.134;18.006;2023-01-04T03:32:07;20.40;;;7.90;;
77085;SDS011;66014;53.134;18.006;2023-01-04T03:34:56;14.80;;;8.10;;
77085;SDS011;66014;53.134;18.006;2023-01-04T03:37:52;16.40;;;8.90;;
77085;SDS011;66014;53.134;18.006;2023-01-04T03:40:40;18.90;;;8.40;;
77085;SDS011;66014;53.134;18.006;2023-01-04T03:43:36;14.70;;;7.20;;
77085;SDS011;66014;53.134;18.006;2023-01-04T03:49:23;19.50;;;9.10;;
77085;SDS011;66014;53.134;18.006;2023-01-04T03:51:56;9.80;;;4.80;;
77085;SDS011;66014;53.134;18.006;2023-01-04T03:54:29;15.50;;;7.90;;
77085;SDS011;66014;53.134;18.006;2023-01-04T03:56:59;21.80;;;9.60;;
77085;SDS011;66014;53.134;18.006;2023-01-04T03:59:26;21.60;;;9.50;;
77085;SDS011;66014;53.134;18.006;2023-01-04T04:01:53;19.20;;;7.90;;
77085;SDS011;66014;53.134;18.006;2023-01-04T04:04:20;19.40;;;8.40;;
77085;SDS011;66014;53.134;18.006;2023-01-04T04:07:05;20.50;;;9.60;;
77085;SDS011;66014;53.134;18.006;2023-01-04T04:09:50;17.70;;;9.30;;
77085;SDS011;66014;53.134;18.006;2023-01-04T04:12:17;17.10;;;9.00;;
77085;SDS011;66014;53.134;18.006;2023-01-04T04:14:43;20.30;;;8.90;;
77085;SDS011;66014;53.134;18.006;2023-01-04T04:17:10;14.60;;;6.90;;
77085;SDS011;66014;53.134;18.006;2023-01-04T04:19:36;16.20;;;7.50;;
77085;SDS011;66014;53.134;18.006;2023-01-04T04:22:03;18.50;;;8.30;;
77085;SDS011;66014;53.134;18.006;2023-01-04T04:24:29;19.70;;;8.30;;
77085;SDS011;66014;53.134;18.006;2023-01-04T04:26:56;18.90;;;9.30;;
77085;SDS011;66014;53.134;18.006;2023-01-04T04:29:23;18.80;;;9.80;;
77085;SDS011;66014;53.134;18.006;2023-01-04T04:31:49;20.90;;;8.70;;
77085;SDS011;66014;53.134;18.006;2023-01-04T04:34:16;17.60;;;8.70;;
77085;SDS011;66014;53.134;18.006;2023-01-04T04:36:42;17.30;;;9.10;;
77085;SDS011;66014;53.134;18.006;2023-01-04T04:39:09;13.20;;;7.30;;
77085;SDS011;66014;53.134;18.006;2023-01-04T04:41:37;16.90;;;8.40;;
77085;SDS011;66014;53.134;18.006;2023-01-04T04:44:05;17.30;;;9.50;;
77085;SDS011;66014;53.134;18.006;2023-01-04T04:46:36;17.40;;;8.30;;
77085;SDS011;66014;53.134;18.006;2023-01-04T04:49:04;20.90;;;8.40;;
77085;SDS011;66014;53.134;18.006;2023-01-04T04:51:31;18.90;;;8.20;;
77085;SDS011;66014;53.134;18.006;2023-01-04T04:53:59;15.00;;;7.90;;
77085;SDS011;66014;53.134;18.006;2023-01-04T04:56:26;23.00;;;9.00;;
77085;SDS011;66014;53.134;18.006;2023-01-04T04:58:53;20.10;;;9.20;;
77085;SDS011;66014;53.134;18.006;2023-01-04T05:01:19;18.80;;;9.60;;
77085;SDS011;66014;53.134;18.006;2023-01-04T05:03:46;17.60;;;8.50;;
77085;SDS011;66014;53.134;18.006;2023-01-04T05:06:13;21.90;;;8.90;;
77085;SDS011;66014;53.134;18.006;2023-01-04T05:08:39;23.30;;;9.90;;
77085;SDS011;66014;53.134;18.006;2023-01-04T05:11:06;26.70;;;10.50;;
77085;SDS011;66014;53.134;18.006;2023-01-04T05:13:35;39.10;;;12.80;;
77085;SDS011;66014;53.134;18.006;2023-01-04T05:16:02;27.50;;;10.90;;
77085;SDS011;66014;53.134;18.006;2023-01-04T05:18:30;21.00;;;9.00;;
77085;SDS011;66014;53.134;18.006;2023-01-04T05:20:57;20.60;;;8.70;;
77085;SDS011;66014;53.134;18.006;2023-01-04T05:23:23;22.90;;;10.10;;
77085;SDS011;66014;53.134;18.006;2023-01-04T05:25:57;31.60;;;12.50;;
77085;SDS011;66014;53.134;18.006;2023-01-04T05:28:26;25.60;;;11.10;;
77085;SDS011;66014;53.134;18.006;2023-01-04T05:30:53;31.10;;;10.90;;
77085;SDS011;66014;53.134;18.006;2023-01-04T05:33:30;29.50;;;9.90;;
77085;SDS011;66014;53.134;18.006;2023-01-04T05:36:00;25.30;;;10.20;;
77085;SDS011;66014;53.134;18.006;2023-01-04T05:38:28;25.50;;;11.00;;
77085;SDS011;66014;53.134;18.006;2023-01-04T05:40:55;21.00;;;9.30;;
77085;SDS011;66014;53.134;18.006;2023-01-04T05:43:22;23.80;;;9.10;;
77085;SDS011;66014;53.134;18.006;2023-01-04T05:45:50;21.00;;;9.30;;
77085;SDS011;66014;53.134;18.006;2023-01-04T05:48:18;27.40;;;9.50;;
77085;SDS011;66014;53.134;18.006;2023-01-04T05:50:46;26.80;;;11.20;;
77085;SDS011;66014;53.134;18.006;2023-01-04T05:53:13;31.00;;;10.80;;
77085;SDS011;66014;53.134;18.006;2023-01-04T05:55:43;29.40;;;11.50;;
77085;SDS011;66014;53.134;18.006;2023-01-04T05:58:10;29.40;;;10.50;;
77085;SDS011;66014;53.134;18.006;2023-01-04T06:00:36;33.60;;;12.00;;
77085;SDS011;66014;53.134;18.006;2023-01-04T06:03:03;37.30;;;16.40;;
77085;SDS011;66014;53.134;18.006;2023-01-04T06:05:29;33.90;;;15.40;;
77085;SDS011;66014;53.134;18.006;2023-01-04T06:07:56;49.30;;;17.70;;
77085;SDS011;66014;53.134;18.006;2023-01-04T06:10:23;38.20;;;15.70;;
77085;SDS011;66014;53.134;18.006;2023-01-04T06:12:49;29.40;;;11.80;;
77085;SDS011;66014;53.134;18.006;2023-01-04T06:15:16;31.60;;;14.10;;
77085;SDS011;66014;53.134;18.006;2023-01-04T06:17:43;34.30;;;13.10;;
77085;SDS011;66014;53.134;18.006;2023-01-04T06:20:09;28.80;;;12.80;;
77085;SDS011;66014;53.134;18.006;2023-01-04T06:22:37;27.20;;;13.50;;
77085;SDS011;66014;53.134;18.006;2023-01-04T06:25:05;24.90;;;11.30;;
77085;SDS011;66014;53.134;18.006;2023-01-04T06:27:33;29.20;;;12.00;;
77085;SDS011;66014;53.134;18.006;2023-01-04T06:29:59;37.70;;;14.40;;
77085;SDS011;66014;53.134;18.006;2023-01-04T06:32:26;31.20;;;14.50;;
77085;SDS011;66014;53.134;18.006;2023-01-04T06:34:53;30.30;;;13.50;;
77085;SDS011;66014;53.134;18.006;2023-01-04T06:37:19;32.60;;;14.00;;
77085;SDS011;66014;53.134;18.006;2023-01-04T06:39:46;27.40;;;13.20;;
77085;SDS011;66014;53.134;18.006;2023-01-04T06:42:12;27.70;;;13.00;;
77085;SDS011;66014;53.134;18.006;2023-01-04T06:45:01;33.50;;;15.10;;
77085;SDS011;66014;53.134;18.006;2023-01-04T06:47:28;31.80;;;16.00;;
77085;SDS011;66014;53.134;18.006;2023-01-04T06:52:31;30.90;;;12.70;;
77085;SDS011;66014;53.134;18.006;2023-01-04T06:55:07;32.60;;;13.50;;
77085;SDS011;66014;53.134;18.006;2023-01-04T06:57:34;27.90;;;13.90;;
77085;SDS011;66014;53.134;18.006;2023-01-04T07:00:02;31.90;;;15.00;;
77085;SDS011;66014;53.134;18.006;2023-01-04T07:02:30;28.50;;;12.80;;
77085;SDS011;66014;53.134;18.006;2023-01-04T07:04:56;28.20;;;12.40;;
77085;SDS011;66014;53.134;18.006;2023-01-04T07:07:23;23.50;;;9.60;;
77085;SDS011;66014;53.134;18.006;2023-01-04T07:09:49;35.40;;;14.70;;
77085;SDS011;66014;53.134;18.006;2023-01-04T07:12:16;30.60;;;14.40;;
77085;SDS011;66014;53.134;18.006;2023-01-04T07:14:43;23.40;;;11.20;;
77085;SDS011;66014;53.134;18.006;2023-01-04T07:17:11;20.20;;;9.00;;
77085;SDS011;66014;53.134;18.006;2023-01-04T07:19:37;27.70;;;11.90;;
77085;SDS011;66014;53.134;18.006;2023-01-04T07:22:04;36.60;;;17.20;;
77085;SDS011;66014;53.134;18.006;2023-01-04T07:24:33;38.80;;;23.70;;
77085;SDS011;66014;53.134;18.006;2023-01-04T07:27:00;34.40;;;18.10;;
77085;SDS011;66014;53.134;18.006;2023-01-04T07:29:27;61.70;;;38.40;;
77085;SDS011;66014;53.134;18.006;2023-01-04T07:31:53;41.80;;;23.40;;
77085;SDS011;66014;53.134;18.006;2023-01-04T07:34:21;134.90;;;83.40;;
77085;SDS011;66014;53.134;18.006;2023-01-04T07:36:50;306.40;;;213.20;;
77085;SDS011;66014;53.134;18.006;2023-01-04T07:39:17;271.40;;;172.80;;
77085;SDS011;66014;53.134;18.006;2023-01-04T07:41:44;215.80;;;142.00;;
77085;SDS011;66014;53.134;18.006;2023-01-04T07:44:14;55.10;;;34.30;;
77085;SDS011;66014;53.134;18.006;2023-01-04T07:46:43;37.60;;;20.30;;
77085;SDS011;66014;53.134;18.006;2023-01-04T07:49:11;37.80;;;17.70;;
77085;SDS011;66014;53.134;18.006;2023-01-04T07:51:38;28.60;;;14.90;;
77085;SDS011;66014;53.134;18.006;2023-01-04T07:54:07;35.40;;;15.90;;
77085;SDS011;66014;53.134;18.006;2023-01-04T07:56:37;28.50;;;14.50;;
77085;SDS011;66014;53.134;18.006;2023-01-04T07:59:04;37.80;;;17.70;;
77085;SDS011;66014;53.134;18.006;2023-01-04T08:01:32;34.40;;;16.00;;
77085;SDS011;66014;53.134;18.006;2023-01-04T08:07:14;33.70;;;15.50;;
77085;SDS011;66014;53.134;18.006;2023-01-04T08:09:55;45.90;;;21.30;;
77085;SDS011;66014;53.134;18.006;2023-01-04T08:12:27;35.60;;;16.00;;
77085;SDS011;66014;53.134;18.006;2023-01-04T08:14:54;35.90;;;16.50;;
77085;SDS011;66014;53.134;18.006;2023-01-04T08:17:21;32.80;;;13.80;;
77085;SDS011;66014;53.134;18.006;2023-01-04T08:19:47;34.90;;;13.60;;
77085;SDS011;66014;53.134;18.006;2023-01-04T08:22:17;43.90;;;19.80;;
77085;SDS011;66014;53.134;18.006;2023-01-04T08:24:44;33.90;;;15.90;;
77085;SDS011;66014;53.134;18.006;2023-01-04T08:27:10;18.00;;;8.30;;
77085;SDS011;66014;53.134;18.006;2023-01-04T08:29:37;26.00;;;11.50;;
77085;SDS011;66014;53.134;18.006;2023-01-04T08:32:03;32.50;;;14.20;;
77085;SDS011;66014;53.134;18.006;2023-01-04T08:34:34;28.50;;;12.30;;
77085;SDS011;66014;53.134;18.006;2023-01-04T08:37:02;26.60;;;11.30;;
77085;SDS011;66014;53.134;18.006;2023-01-04T08:39:29;35.40;;;14.70;;
77085;SDS011;66014;53.134;18.006;2023-01-04T08:42:05;28.10;;;12.70;;
77085;SDS011;66014;53.134;18.006;2023-01-04T08:44:32;26.50;;;13.70;;
77085;SDS011;66014;53.134;18.006;2023-01-04T08:47:00;31.10;;;14.00;;
77085;SDS011;66014;53.134;18.006;2023-01-04T08:49:27;27.50;;;11.80;;
77085;SDS011;66014;53.134;18.006;2023-01-04T08:51:54;23.20;;;11.30;;
77085;SDS011;66014;53.134;18.006;2023-01-04T08:54:20;26.40;;;12.10;;
77085;SDS011;66014;53.134;18.006;2023-01-04T08:56:48;32.20;;;14.30;;
77085;SDS011;66014;53.134;18.006;2023-01-04T08:59:14;30.60;;;13.90;;
77085;SDS011;66014;53.134;18.006;2023-01-04T09:01:41;29.60;;;13.90;;
77085;SDS011;66014;53.134;18.006;2023-01-04T09:04:08;31.20;;;13.30;;
77085;SDS011;66014;53.134;18.006;2023-01-04T09:06:36;27.60;;;13.40;;
77085;SDS011;66014;53.134;18.006;2023-01-04T09:09:04;31.00;;;13.30;;
77085;SDS011;66014;53.134;18.006;2023-01-04T09:11:30;27.10;;;11.90;;
77085;SDS011;66014;53.134;18.006;2023-01-04T09:13:59;14.60;;;7.90;;
77085;SDS011;66014;53.134;18.006;2023-01-04T09:16:27;21.10;;;10.90;;
77085;SDS011;66014;53.134;18.006;2023-01-04T09:18:53;23.70;;;10.10;;
77085;SDS011;66014;53.134;18.006;2023-01-04T09:21:20;27.50;;;13.70;;
77085;SDS011;66014;53.134;18.006;2023-01-04T09:23:47;27.10;;;14.80;;
77085;SDS011;66014;53.134;18.006;2023-01-04T09:28:45;23.50;;;9.60;;
77085;SDS011;66014;53.134;18.006;2023-01-04T09:31:24;36.50;;;15.10;;
77085;SDS011;66014;53.134;18.006;2023-01-04T09:33:53;30.10;;;13.40;;
77085;SDS011;66014;53.134;18.006;2023-01-04T09:36:21;40.80;;;16.40;;
77085;SDS011;66014;53.134;18.006;2023-01-04T09:38:50;29.10;;;14.30;;
77085;SDS011;66014;53.134;18.006;2023-01-04T09:46:39;33.30;;;14.50;;
77085;SDS011;66014;53.134;18.006;2023-01-04T09:49:28;39.20;;;15.70;;
77085;SDS011;66014;53.134;18.006;2023-01-04T09:52:12;24.80;;;11.10;;
77085;SDS011;66014;53.134;18.006;2023-01-04T09:54:52;35.80;;;14.30;;
77085;SDS011;66014;53.134;18.006;2023-01-04T09:57:25;38.50;;;18.40;;
77085;SDS011;66014;53.134;18.006;2023-01-04T10:00:00;36.80;;;21.30;;
77085;SDS011;66014;53.134;18.006;2023-01-04T10:02:41;59.50;;;30.00;;
77085;SDS011;66014;53.134;18.006;2023-01-04T10:05:17;47.30;;;24.70;;
77085;SDS011;66014;53.134;18.006;2023-01-04T10:07:47;24.80;;;14.20;;
77085;SDS011;66014;53.134;18.006;2023-01-04T10:10:14;37.40;;;18.70;;
77085;SDS011;66014;53.134;18.006;2023-01-04T10:12:55;26.60;;;13.70;;
77085;SDS011;66014;53.134;18.006;2023-01-04T10:20:48;23.70;;;13.40;;
77085;SDS011;66014;53.134;18.006;2023-01-04T10:23:40;27.70;;;12.70;;
77085;SDS011;66014;53.134;18.006;2023-01-04T10:26:24;34.30;;;16.10;;
77085;SDS011;66014;53.134;18.006;2023-01-04T10:32:00;16.00;;;8.00;;
77085;SDS011;66014;53.134;18.006;2023-01-04T10:34:48;23.80;;;9.50;;
77085;SDS011;66014;53.134;18.006;2023-01-04T10:37:34;24.30;;;11.90;;
77085;SDS011;66014;53.134;18.006;2023-01-04T10:40:09;26.60;;;14.20;;
77085;SDS011;66014;53.134;18.006;2023-01-04T10:51:20;30.10;;;12.10;;
77085;SDS011;66014;53.134;18.006;2023-01-04T10:54:45;27.50;;;11.20;;
77085;SDS011;66014;53.134;18.006;2023-01-04T10:57:08;18.90;;;8.90;;
77085;SDS011;66014;53.134;18.006;2023-01-04T10:59:41;25.80;;;12.80;;
77085;SDS011;66014;53.134;18.006;2023-01-04T11:02:16;20.30;;;10.80;;
77085;SDS011;66014;53.134;18.006;2023-01-04T11:05:01;25.30;;;11.10;;
77085;SDS011;66014;53.134;18.006;2023-01-04T11:07:39;19.30;;;11.30;;
77085;SDS011;66014;53.134;18.006;2023-01-04T11:10:24;29.70;;;16.30;;
77085;SDS011;66014;53.134;18.006;2023-01-04T11:13:03;19.40;;;9.20;;
77085;SDS011;66014;53.134;18.006;2023-01-04T11:15:29;24.30;;;13.00;;
77085;SDS011;66014;53.134;18.006;2023-01-04T11:20:31;20.90;;;7.50;;
77085;SDS011;66014;53.134;18.006;2023-01-04T11:22:59;21.60;;;9.20;;
77085;SDS011;66014;53.134;18.006;2023-01-04T11:25:31;14.30;;;7.60;;
77085;SDS011;66014;53.134;18.006;2023-01-04T11:28:14;12.70;;;6.80;;
77085;SDS011;66014;53.134;18.006;2023-01-04T11:33:26;18.50;;;8.10;;
77085;SDS011;66014;53.134;18.006;2023-01-04T11:35:53;16.50;;;7.60;;
77085;SDS011;66014;53.134;18.006;2023-01-04T11:38:23;18.70;;;8.60;;
77085;SDS011;66014;53.134;18.006;2023-01-04T11:41:04;13.60;;;6.60;;
77085;SDS011;66014;53.134;18.006;2023-01-04T11:43:37;15.40;;;7.90;;
77085;SDS011;66014;53.134;18.006;2023-01-04T11:48:37;15.20;;;6.20;;
77085;SDS011;66014;53.134;18.006;2023-01-04T11:51:17;11.80;;;5.60;;
77085;SDS011;66014;53.134;18.006;2023-01-04T11:54:01;13.70;;;6.00;;
77085;SDS011;66014;53.134;18.006;2023-01-04T11:56:55;16.40;;;7.90;;
77085;SDS011;66014;53.134;18.006;2023-01-04T11:59:26;15.20;;;8.50;;
77085;SDS011;66014;53.134;18.006;2023-01-04T12:04:50;15.00;;;6.70;;
77085;SDS011;66014;53.134;18.006;2023-01-04T12:07:26;17.20;;;8.30;;
77085;SDS011;66014;53.134;18.006;2023-01-04T12:09:57;17.40;;;8.00;;
77085;SDS011;66014;53.134;18.006;2023-01-04T12:12:32;12.80;;;5.80;;
77085;SDS011;66014;53.134;18.006;2023-01-04T12:14:59;12.30;;;6.00;;
77085;SDS011;66014;53.134;18.006;2023-01-04T12:17:34;21.40;;;9.00;;
77085;SDS011;66014;53.134;18.006;2023-01-04T12:20:13;16.40;;;6.40;;
77085;SDS011;66014;53.134;18.006;2023-01-04T12:22:45;16.20;;;6.40;;
77085;SDS011;66014;53.134;18.006;2023-01-04T12:25:34;16.90;;;8.60;;
77085;SDS011;66014;53.134;18.006;2023-01-04T12:28:04;12.70;;;6.40;;
77085;SDS011;66014;53.134;18.006;2023-01-04T12:30:31;15.30;;;8.20;;
77085;SDS011;66014;53.134;18.006;2023-01-04T12:36:02;13.30;;;7.00;;
77085;SDS011;66014;53.134;18.006;2023-01-04T12:43:59;12.40;;;6.50;;
77085;SDS011;66014;53.134;18.006;2023-01-04T13:02:25;32.70;;;21.50;;
77085;SDS011;66014;53.134;18.006;2023-01-04T13:05:00;150.40;;;105.20;;
77085;SDS011;66014;53.134;18.006;2023-01-04T13:07:43;31.90;;;22.10;;
77085;SDS011;66014;53.134;18.006;2023-01-04T13:18:51;30.70;;;16.70;;
77085;SDS011;66014;53.134;18.006;2023-01-04T13:24:20;19.30;;;9.60;;
77085;SDS011;66014;53.134;18.006;2023-01-04T13:26:49;14.90;;;8.80;;
77085;SDS011;66014;53.134;18.006;2023-01-04T13:29:18;23.60;;;14.20;;
77085;SDS011;66014;53.134;18.006;2023-01-04T13:31:59;15.30;;;9.50;;
77085;SDS011;66014;53.134;18.006;2023-01-04T13:34:29;27.30;;;20.50;;
77085;SDS011;66014;53.134;18.006;2023-01-04T13:39:44;20.90;;;10.30;;
77085;SDS011;66014;53.134;18.006;2023-01-04T13:48:11;22.90;;;12.30;;
77085;SDS011;66014;53.134;18.006;2023-01-04T13:50:42;18.20;;;8.30;;
77085;SDS011;66014;53.134;18.006;2023-01-04T13:53:26;14.90;;;8.50;;
77085;SDS011;66014;53.134;18.006;2023-01-04T13:55:55;15.50;;;7.30;;
77085;SDS011;66014;53.134;18.006;2023-01-04T13:58:24;13.80;;;6.80;;
77085;SDS011;66014;53.134;18.006;2023-01-04T14:01:03;18.00;;;8.40;;
77085;SDS011;66014;53.134;18.006;2023-01-04T14:06:10;13.60;;;6.90;;
77085;SDS011;66014;53.134;18.006;2023-01-04T14:09:23;18.90;;;9.20;;
77085;SDS011;66014;53.134;18.006;2023-01-04T14:11:43;16.80;;;7.30;;
77085;SDS011;66014;53.134;18.006;2023-01-04T14:14:46;15.60;;;7.70;;
77085;SDS011;66014;53.134;18.006;2023-01-04T14:19:55;15.20;;;8.00;;
77085;SDS011;66014;53.134;18.006;2023-01-04T14:24:53;16.00;;;9.10;;
77085;SDS011;66014;53.134;18.006;2023-01-04T14:30:42;34.20;;;15.40;;
77085;SDS011;66014;53.134;18.006;2023-01-04T14:32:57;41.10;;;15.10;;
77085;SDS011;66014;53.134;18.006;2023-01-04T14:35:27;28.20;;;11.00;;
77085;SDS011;66014;53.134;18.006;2023-01-04T14:38:00;19.50;;;8.00;;
77085;SDS011;66014;53.134;18.006;2023-01-04T14:40:30;21.10;;;10.20;;
77085;SDS011;66014;53.134;18.006;2023-01-04T14:42:57;18.50;;;7.50;;
77085;SDS011;66014;53.134;18.006;2023-01-04T14:45:24;20.00;;;9.40;;
77085;SDS011;66014;53.134;18.006;2023-01-04T14:47:50;19.50;;;10.40;;
77085;SDS011;66014;53.134;18.006;2023-01-04T14:50:17;16.90;;;8.80;;
77085;SDS011;66014;53.134;18.006;2023-01-04T14:52:50;11.20;;;7.20;;
77085;SDS011;66014;53.134;18.006;2023-01-04T14:55:18;10.60;;;6.40;;
77085;SDS011;66014;53.134;18.006;2023-01-04T14:57:45;10.10;;;5.70;;
77085;SDS011;66014;53.134;18.006;2023-01-04T15:00:12;15.20;;;7.60;;
77085;SDS011;66014;53.134;18.006;2023-01-04T15:02:41;13.90;;;7.50;;
77085;SDS011;66014;53.134;18.006;2023-01-04T15:05:08;15.90;;;9.80;;
77085;SDS011;66014;53.134;18.006;2023-01-04T15:07:38;14.50;;;8.50;;
77085;SDS011;66014;53.134;18.006;2023-01-04T15:10:07;40.60;;;14.80;;
77085;SDS011;66014;53.134;18.006;2023-01-04T15:12:44;14.70;;;7.80;;
77085;SDS011;66014;53.134;18.006;2023-01-04T15:15:11;9.00;;;5.40;;
77085;SDS011;66014;53.134;18.006;2023-01-04T15:17:37;16.30;;;8.00;;
77085;SDS011;66014;53.134;18.006;2023-01-04T15:20:04;26.10;;;13.80;;
77085;SDS011;66014;53.134;18.006;2023-01-04T15:22:31;11.90;;;6.50;;
77085;SDS011;66014;53.134;18.006;2023-01-04T15:24:58;11.70;;;6.50;;
77085;SDS011;66014;53.134;18.006;2023-01-04T15:27:25;12.30;;;7.60;;
77085;SDS011;66014;53.134;18.006;2023-01-04T15:29:51;13.90;;;8.10;;
77085;SDS011;66014;53.134;18.006;2023-01-04T15:32:18;16.90;;;9.20;;
77085;SDS011;66014;53.134;18.006;2023-01-04T15:34:47;80.50;;;28.00;;
77085;SDS011;66014;53.134;18.006;2023-01-04T15:37:15;149.80;;;44.70;;
77085;SDS011;66014;53.134;18.006;2023-01-04T15:39:42;139.20;;;45.00;;
77085;SDS011;66014;53.134;18.006;2023-01-04T15:42:09;67.90;;;28.10;;
77085;SDS011;66014;53.134;18.006;2023-01-04T15:44:56;25.10;;;10.80;;
77085;SDS011;66014;53.134;18.006;2023-01-04T15:47:23;54.10;;;25.40;;
77085;SDS011;66014;53.134;18.006;2023-01-04T15:49:49;25.60;;;13.10;;
77085;SDS011;66014;53.134;18.006;2023-01-04T15:52:16;14.60;;;9.70;;
77085;SDS011;66014;53.134;18.006;2023-01-04T15:54:43;21.30;;;13.70;;
77085;SDS011;66014;53.134;18.006;2023-01-04T15:57:09;39.60;;;13.90;;
77085;SDS011;66014;53.134;18.006;2023-01-04T15:59:36;82.30;;;26.90;;
77085;SDS011;66014;53.134;18.006;2023-01-04T16:02:02;223.50;;;68.90;;
77085;SDS011;66014;53.134;18.006;2023-01-04T16:04:29;107.70;;;38.90;;
77085;SDS011;66014;53.134;18.006;2023-01-04T16:06:56;48.80;;;19.80;;
77085;SDS011;66014;53.134;18.006;2023-01-04T16:09:22;27.00;;;12.40;;
77085;SDS011;66014;53.134;18.006;2023-01-04T16:11:49;15.90;;;9.20;;
77085;SDS011;66014;53.134;18.006;2023-01-04T16:14:35;15.30;;;11.30;;
77085;SDS011;66014;53.134;18.006;2023-01-04T16:17:02;10.00;;;5.80;;
77085;SDS011;66014;53.134;18.006;2023-01-04T16:19:29;17.20;;;8.40;;
77085;SDS011;66014;53.134;18.006;2023-01-04T16:21:57;18.30;;;9.90;;
77085;SDS011;66014;53.134;18.006;2023-01-04T16:24:24;14.70;;;8.30;;
77085;SDS011;66014;53.134;18.006;2023-01-04T16:26:51;14.90;;;7.30;;
77085;SDS011;66014;53.134;18.006;2023-01-04T16:29:18;10.80;;;5.90;;
77085;SDS011;66014;53.134;18.006;2023-01-04T16:31:46;18.50;;;9.80;;
77085;SDS011;66014;53.134;18.006;2023-01-04T16:34:12;12.40;;;7.50;;
77085;SDS011;66014;53.134;18.006;2023-01-04T16:36:40;11.20;;;5.50;;
77085;SDS011;66014;53.134;18.006;2023-01-04T16:39:07;8.90;;;5.70;;
77085;SDS011;66014;53.134;18.006;2023-01-04T16:41:34;7.30;;;4.50;;
77085;SDS011;66014;53.134;18.006;2023-01-04T16:44:02;7.50;;;4.50;;
77085;SDS011;66014;53.134;18.006;2023-01-04T16:46:30;9.30;;;4.90;;
77085;SDS011;66014;53.134;18.006;2023-01-04T16:49:00;9.70;;;5.90;;